Time;durP1;ratioP1;P1;durP2;ratioP2;P2;SDS_P1;SDS_P2;PMS_P1;PMS_P2;Temp;Humidity;BMP_temperature;BMP_pressure;BME280_temperature;BME280_humidity;BME280_pressure;Samples;Min_cycle;Max_cycle;Signal;HPM_P1;HPM_P2
2023/03/22 00:00:35;;;;;;;15.40;10.25;;;8.20;99.90;;;;;;5038666;28;20399;-58
2023/03/22 00:03:01;;;;;;;11.70;9.23;;;8.20;99.90;;;;;;5039486;28;20064;-60
2023/03/22 00:05:28;;;;;;;14.52;9.52;;;8.30;99.90;;;;;;5038179;28;20052;-61
2023/03/22 00:07:56;;;;;;;16.80;10.57;;;8.30;99.90;;;;;;5040203;28;20017;-61
2023/03/22 00:10:24;;;;;;;12.73;10.13;;;8.30;99.90;;;;;;5038267;28;20076;-60
2023/03/22 00:12:50;;;;;;;12.57;10.25;;;8.30;99.90;;;;;;5041476;28;20044;-60
2023/03/22 00:15:16;;;;;;;13.98;9.70;;;8.30;99.90;;;;;;5035264;28;20022;-60
2023/03/22 00:17:43;;;;;;;11.07;9.93;;;8.30;99.90;;;;;;5044984;28;20021;-59
2023/03/22 00:20:10;;;;;;;16.10;10.82;;;8.30;99.90;;;;;;5037608;28;20033;-60
2023/03/22 00:22:36;;;;;;;14.07;10.38;;;8.30;99.90;;;;;;5037180;28;20092;-58
2023/03/22 00:25:03;;;;;;;19.75;10.85;;;8.20;99.90;;;;;;5037681;28;20024;-62
2023/03/22 00:27:29;;;;;;;14.90;11.68;;;8.30;99.90;;;;;;5037152;28;20033;-59
2023/03/22 00:29:54;;;;;;;16.80;11.07;;;8.30;99.90;;;;;;5038785;28;20026;-61
2023/03/22 00:32:20;;;;;;;13.50;11.02;;;8.30;99.90;;;;;;5038550;28;20026;-55
2023/03/22 00:34:45;;;;;;;18.35;11.77;;;8.30;99.90;;;;;;5045115;28;20045;-59
2023/03/22 00:37:11;;;;;;;14.98;11.88;;;8.30;99.90;;;;;;5039655;28;20033;-61
2023/03/22 00:39:37;;;;;;;12.90;10.82;;;8.30;99.90;;;;;;5040173;28;20068;-60
2023/03/22 00:42:05;;;;;;;16.27;11.65;;;8.30;99.90;;;;;;5042684;28;20353;-58
2023/03/22 00:44:31;;;;;;;12.65;10.82;;;8.30;99.90;;;;;;5038389;28;20030;-60
2023/03/22 00:46:57;;;;;;;14.35;11.07;;;8.30;99.90;;;;;;5045426;28;20435;-61
2023/03/22 00:49:24;;;;;;;15.07;12.57;;;8.20;99.90;;;;;;5036855;28;20239;-61
2023/03/22 00:51:50;;;;;;;16.83;11.93;;;8.20;99.90;;;;;;5046022;28;20032;-60
2023/03/22 00:54:16;;;;;;;15.90;12.23;;;8.20;99.90;;;;;;5039079;28;20041;-60
2023/03/22 00:56:44;;;;;;;15.43;12.50;;;8.30;99.90;;;;;;5040619;28;20025;-58
2023/03/22 00:59:11;;;;;;;15.60;12.70;;;8.30;99.90;;;;;;5036939;28;20387;-62
2023/03/22 01:01:36;;;;;;;15.48;12.05;;;8.30;99.90;;;;;;5031369;28;20547;-61
2023/03/22 01:04:04;;;;;;;16.15;12.45;;;8.30;99.90;;;;;;5038461;28;20025;-58
2023/03/22 01:06:30;;;;;;;15.85;13.05;;;8.30;99.90;;;;;;5038706;28;20029;-62
2023/03/22 01:08:56;;;;;;;15.00;11.90;;;8.30;99.90;;;;;;5040590;28;20056;-62
2023/03/22 01:11:22;;;;;;;19.85;13.32;;;8.30;99.90;;;;;;5035926;28;20503;-62
2023/03/22 01:13:48;;;;;;;19.17;13.35;;;8.30;99.90;;;;;;5040810;28;20040;-61
2023/03/22 01:16:14;;;;;;;19.67;13.63;;;8.30;99.90;;;;;;5035767;28;20025;-61
2023/03/22 01:18:40;;;;;;;17.70;13.30;;;8.40;99.90;;;;;;5039963;28;20033;-60
2023/03/22 01:21:06;;;;;;;16.30;13.50;;;8.30;99.90;;;;;;5041256;28;20502;-62
2023/03/22 01:23:32;;;;;;;15.63;12.65;;;8.40;99.90;;;;;;5035875;28;20026;-58
2023/03/22 01:25:57;;;;;;;15.27;13.10;;;8.30;99.90;;;;;;5037444;28;20349;-60
2023/03/22 01:28:23;;;;;;;17.80;13.95;;;8.30;99.90;;;;;;5040635;28;20021;-58
2023/03/22 01:30:50;;;;;;;19.33;12.80;;;8.30;99.90;;;;;;5037117;28;20271;-58
2023/03/22 01:33:15;;;;;;;14.27;12.27;;;8.30;99.90;;;;;;5043227;28;20518;-60
2023/03/22 01:35:41;;;;;;;17.60;13.18;;;8.30;99.90;;;;;;5039154;28;20056;-56
2023/03/22 01:38:07;;;;;;;18.63;14.60;;;8.40;99.90;;;;;;5032802;28;20033;-57
2023/03/22 01:40:33;;;;;;;17.88;13.35;;;8.40;99.90;;;;;;5038588;28;20101;-61
2023/03/22 01:42:59;;;;;;;15.93;12.63;;;8.40;99.90;;;;;;5036366;28;20024;-62
2023/03/22 01:45:40;;;;;;;19.10;13.60;;;8.40;99.90;;;;;;5041561;28;20033;-60
2023/03/22 01:48:33;;;;;;;18.77;13.90;;;8.40;99.90;;;;;;5034390;28;20978;-57
2023/03/22 01:51:03;;;;;;;18.85;14.13;;;8.40;99.90;;;;;;5031770;28;20041;-58
2023/03/22 01:53:32;;;;;;;16.98;13.77;;;8.40;99.90;;;;;;5040675;28;20029;-59
2023/03/22 01:55:58;;;;;;;20.10;14.40;;;8.50;99.90;;;;;;5035223;28;20072;-60
2023/03/22 01:58:24;;;;;;;18.02;14.75;;;8.50;99.90;;;;;;5036326;28;20033;-58
2023/03/22 02:00:51;;;;;;;16.80;14.85;;;8.50;99.90;;;;;;5027011;28;20037;-57
2023/03/22 02:03:29;;;;;;;17.30;13.10;;;8.50;99.90;;;;;;5034763;28;20507;-60
2023/03/22 02:05:55;;;;;;;21.17;15.05;;;8.50;99.90;;;;;;5040674;28;20100;-58
2023/03/22 02:08:21;;;;;;;22.38;15.32;;;8.60;99.90;;;;;;5044108;28;20478;-60
2023/03/22 02:10:47;;;;;;;21.30;14.05;;;8.60;99.90;;;;;;5037719;28;20061;-59
2023/03/22 02:13:24;;;;;;;16.60;14.10;;;8.60;99.90;;;;;;5043610;28;20025;-61
2023/03/22 02:16:11;;;;;;;17.58;13.30;;;8.60;99.90;;;;;;5037642;28;20073;-61
2023/03/22 02:18:57;;;;;;;19.40;16.17;;;8.60;99.90;;;;;;5039122;28;20109;-61
2023/03/22 02:21:40;;;;;;;18.98;14.88;;;8.60;99.90;;;;;;5035964;28;20033;-61
2023/03/22 02:24:31;;;;;;;20.60;14.38;;;8.60;99.90;;;;;;5030007;28;20476;-57
2023/03/22 02:27:18;;;;;;;16.10;13.45;;;8.60;99.90;;;;;;5030935;28;20590;-58
2023/03/22 02:29:45;;;;;;;;;;;8.60;99.90;;;;;;5040804;28;20443;-59
2023/03/22 02:32:26;;;;;;;17.65;13.88;;;8.60;99.90;;;;;;5039723;28;19904;-60
2023/03/22 02:35:06;;;;;;;15.95;13.27;;;8.60;99.90;;;;;;5034090;28;20614;-58
2023/03/22 02:37:35;;;;;;;16.83;13.30;;;8.60;99.90;;;;;;5041021;28;20494;-60
2023/03/22 02:40:11;;;;;;;18.63;13.25;;;8.60;99.90;;;;;;5036573;28;20035;-61
2023/03/22 02:42:40;;;;;;;15.80;13.88;;;8.60;99.90;;;;;;5036557;28;20030;-57
2023/03/22 02:45:23;;;;;;;15.70;12.77;;;8.50;99.90;;;;;;5044646;28;20097;-58
2023/03/22 02:48:00;;;;;;;16.52;12.93;;;8.50;99.90;;;;;;5040442;28;20029;-54
2023/03/22 02:50:49;;;;;;;19.63;14.30;;;8.50;99.90;;;;;;5038305;28;20052;-61
2023/03/22 02:53:20;;;;;;;18.95;13.48;;;8.50;99.90;;;;;;5037161;28;20021;-59
2023/03/22 02:56:09;;;;;;;15.65;12.70;;;8.50;99.90;;;;;;5043327;28;20100;-59
2023/03/22 02:58:36;;;;;;;21.60;15.10;;;8.50;99.90;;;;;;5030245;28;20049;-59
2023/03/22 03:01:06;;;;;;;24.08;15.25;;;8.50;99.90;;;;;;5042571;28;20029;-59
2023/03/22 03:03:36;;;;;;;20.25;14.38;;;8.50;99.90;;;;;;5042732;28;21193;-61
2023/03/22 03:06:07;;;;;;;17.05;13.68;;;8.50;99.90;;;;;;5029954;28;20033;-59
2023/03/22 03:08:34;;;;;;;18.30;13.05;;;8.60;99.90;;;;;;5043698;28;20041;-61
2023/03/22 03:11:00;;;;;;;18.17;13.60;;;8.60;99.90;;;;;;5043569;28;20025;-59
2023/03/22 03:13:25;;;;;;;17.20;12.90;;;8.60;99.90;;;;;;5045216;28;20120;-61
2023/03/22 03:15:56;;;;;;;18.83;14.10;;;8.60;99.90;;;;;;5037643;28;20548;-59
2023/03/22 03:18:45;;;;;;;16.42;13.63;;;8.60;99.90;;;;;;5045434;28;20025;-61
2023/03/22 03:21:31;;;;;;;16.80;13.40;;;8.70;99.90;;;;;;5039525;28;20504;-58
2023/03/22 03:24:06;;;;;;;19.92;13.52;;;8.70;99.90;;;;;;5041864;28;20015;-61
2023/03/22 03:26:38;;;;;;;16.30;13.68;;;8.70;99.90;;;;;;5040665;28;20029;-60
2023/03/22 03:29:12;;;;;;;14.13;11.80;;;8.80;99.90;;;;;;5045625;28;20021;-60
2023/03/22 03:31:53;;;;;;;14.88;11.95;;;8.80;99.90;;;;;;5041546;28;20091;-59
2023/03/22 03:34:32;;;;;;;15.63;11.82;;;8.80;99.90;;;;;;5041689;28;20434;-59
2023/03/22 03:37:04;;;;;;;18.25;14.00;;;8.80;99.90;;;;;;5042597;28;20017;-59
2023/03/22 03:39:32;;;;;;;14.10;11.38;;;8.80;99.90;;;;;;5042203;28;20024;-58
2023/03/22 03:42:00;;;;;;;14.63;11.57;;;8.80;99.90;;;;;;5039122;28;20025;-60
2023/03/22 03:44:26;;;;;;;18.23;12.23;;;8.80;99.90;;;;;;5045215;28;20112;-60
2023/03/22 03:46:53;;;;;;;15.80;13.15;;;8.80;99.90;;;;;;5034738;28;20029;-60
2023/03/22 03:49:21;;;;;;;16.05;12.00;;;8.80;99.90;;;;;;5038107;28;20128;-60
2023/03/22 03:51:50;;;;;;;14.40;11.63;;;8.80;99.90;;;;;;5043404;28;20087;-58
2023/03/22 03:54:16;;;;;;;15.48;11.95;;;8.80;99.90;;;;;;5045039;28;20450;-57
2023/03/22 03:56:42;;;;;;;15.40;12.10;;;8.80;99.90;;;;;;5042348;28;20044;-57
2023/03/22 03:59:08;;;;;;;15.63;12.07;;;8.80;99.90;;;;;;5039057;28;20033;-57
2023/03/22 04:01:34;;;;;;;15.63;11.95;;;8.80;99.90;;;;;;5031793;28;20041;-58
2023/03/22 04:04:00;;;;;;;18.48;12.70;;;8.80;99.90;;;;;;5039322;28;20022;-59
2023/03/22 04:06:25;;;;;;;15.93;12.10;;;8.80;99.90;;;;;;5037103;28;20045;-57
2023/03/22 04:08:52;;;;;;;18.70;12.98;;;8.80;99.90;;;;;;5034783;28;20354;-60
2023/03/22 04:11:19;;;;;;;15.30;12.20;;;8.80;99.90;;;;;;5039330;28;20025;-60
2023/03/22 04:13:44;;;;;;;15.68;12.18;;;8.70;99.90;;;;;;5044039;28;20029;-61
2023/03/22 04:16:10;;;;;;;14.70;12.13;;;8.70;99.90;;;;;;5038841;28;20033;-56
2023/03/22 04:18:36;;;;;;;14.07;11.57;;;8.70;99.90;;;;;;5042756;28;20025;-58
2023/03/22 04:21:02;;;;;;;14.95;12.48;;;8.70;99.90;;;;;;5037771;28;20547;-60
2023/03/22 04:23:28;;;;;;;16.00;11.80;;;8.70;99.90;;;;;;5034485;28;20044;-62
2023/03/22 04:25:53;;;;;;;16.45;11.77;;;8.70;99.90;;;;;;5036279;28;20056;-62
2023/03/22 04:28:19;;;;;;;13.32;11.90;;;8.70;99.90;;;;;;5041777;28;20285;-60
2023/03/22 04:30:50;;;;;;;12.85;11.57;;;8.70;99.90;;;;;;5042969;28;20041;-57
2023/03/22 04:33:16;;;;;;;19.45;12.73;;;8.70;99.90;;;;;;5030542;28;20116;-61
2023/03/22 04:35:41;;;;;;;15.20;12.30;;;8.70;99.90;;;;;;5039626;28;20109;-59
2023/03/22 04:38:08;;;;;;;14.55;11.68;;;8.70;99.90;;;;;;5045575;28;20044;-60
2023/03/22 04:40:37;;;;;;;16.52;12.05;;;8.70;99.90;;;;;;5039187;28;20052;-61
2023/03/22 04:43:03;;;;;;;14.32;11.18;;;8.70;99.90;;;;;;5042198;28;20074;-60
2023/03/22 04:45:31;;;;;;;12.40;10.00;;;8.70;99.90;;;;;;5037349;28;20036;-58
2023/03/22 04:47:57;;;;;;;13.15;10.55;;;8.70;99.90;;;;;;5039767;28;20028;-59
2023/03/22 04:50:22;;;;;;;14.80;10.52;;;8.70;99.90;;;;;;5039963;28;20053;-61
2023/03/22 04:52:48;;;;;;;17.25;10.68;;;8.70;99.90;;;;;;5041107;28;20024;-59
2023/03/22 04:55:14;;;;;;;14.70;11.20;;;8.60;99.90;;;;;;5043631;28;20029;-59
2023/03/22 04:57:40;;;;;;;14.52;10.68;;;8.60;99.90;;;;;;5036474;28;20705;-61
2023/03/22 05:00:07;;;;;;;13.57;10.13;;;8.60;99.90;;;;;;5037566;28;20310;-57
2023/03/22 05:02:33;;;;;;;14.35;10.07;;;8.60;99.90;;;;;;5037431;28;20447;-61
2023/03/22 05:04:59;;;;;;;13.80;10.68;;;8.60;99.90;;;;;;5035377;28;20074;-59
2023/03/22 05:07:24;;;;;;;15.23;10.02;;;8.60;99.90;;;;;;5038223;28;20079;-59
2023/03/22 05:09:50;;;;;;;13.07;10.15;;;8.60;99.90;;;;;;5036228;28;20077;-61
2023/03/22 05:12:16;;;;;;;12.80;10.85;;;8.60;99.90;;;;;;5038314;28;20026;-60
2023/03/22 05:14:41;;;;;;;13.52;10.02;;;8.60;99.90;;;;;;5040104;28;20045;-60
2023/03/22 05:17:07;;;;;;;16.70;10.43;;;8.60;99.90;;;;;;5041329;28;20028;-60
2023/03/22 05:19:33;;;;;;;12.48;10.10;;;8.60;99.90;;;;;;5038540;28;20036;-58
2023/03/22 05:22:00;;;;;;;14.38;11.15;;;8.60;99.90;;;;;;5038016;28;20365;-60
2023/03/22 05:24:29;;;;;;;16.58;10.82;;;8.60;99.90;;;;;;5037731;28;20021;-63
2023/03/22 05:26:55;;;;;;;13.75;10.35;;;8.70;99.90;;;;;;5041243;28;20013;-62
2023/03/22 05:29:21;;;;;;;15.23;10.38;;;8.70;99.90;;;;;;5040670;28;20455;-60
2023/03/22 05:31:47;;;;;;;16.05;9.38;;;8.70;99.90;;;;;;5040605;28;20743;-57
2023/03/22 05:34:12;;;;;;;14.52;10.25;;;8.70;99.90;;;;;;5040952;28;20025;-60
2023/03/22 05:36:38;;;;;;;15.05;10.68;;;8.70;99.90;;;;;;5039099;28;20029;-59
2023/03/22 05:39:04;;;;;;;15.60;9.85;;;8.70;99.90;;;;;;5040738;28;20483;-61
2023/03/22 05:41:32;;;;;;;12.10;9.85;;;8.70;99.90;;;;;;5037417;28;20033;-60
2023/03/22 05:43:59;;;;;;;13.10;9.98;;;8.70;99.90;;;;;;5039532;28;20017;-60
2023/03/22 05:46:24;;;;;;;13.80;10.10;;;8.70;99.90;;;;;;5040759;28;20029;-60
2023/03/22 05:48:50;;;;;;;16.08;11.50;;;8.70;99.90;;;;;;5031149;28;20495;-61
2023/03/22 05:51:16;;;;;;;12.18;9.65;;;8.80;99.90;;;;;;5040738;28;20493;-64
2023/03/22 05:53:53;;;;;;;14.35;9.88;;;8.80;99.90;;;;;;5032409;28;20108;-60
2023/03/22 05:56:22;;;;;;;14.65;9.30;;;8.80;99.90;;;;;;5033243;28;20105;-60
2023/03/22 05:58:48;;;;;;;10.77;8.98;;;8.80;99.90;;;;;;5039025;28;20048;-60
2023/03/22 06:01:15;;;;;;;12.45;9.93;;;8.80;99.90;;;;;;5040122;28;20036;-57
2023/03/22 06:03:41;;;;;;;10.85;9.30;;;8.80;99.90;;;;;;5037917;28;20025;-62
2023/03/22 06:06:09;;;;;;;14.00;8.90;;;8.80;99.90;;;;;;5028900;28;20025;-59
2023/03/22 06:08:35;;;;;;;12.63;9.18;;;8.90;99.90;;;;;;5036640;28;20040;-59
2023/03/22 06:11:01;;;;;;;13.15;9.27;;;8.90;99.90;;;;;;5041701;28;20021;-61
2023/03/22 06:13:27;;;;;;;13.98;9.85;;;9.00;99.90;;;;;;5039375;28;20369;-59
2023/03/22 06:15:52;;;;;;;15.02;8.77;;;9.00;99.90;;;;;;5036311;28;20092;-57
2023/03/22 06:18:18;;;;;;;13.30;8.23;;;9.00;99.90;;;;;;5039621;28;20040;-57
2023/03/22 06:20:44;;;;;;;11.23;8.85;;;9.00;99.90;;;;;;5033909;28;20025;-57
2023/03/22 06:23:09;;;;;;;13.88;9.13;;;9.00;99.90;;;;;;5039879;28;20017;-58
2023/03/22 06:25:35;;;;;;;10.57;8.38;;;9.00;99.90;;;;;;5038890;28;20056;-59
2023/03/22 06:28:01;;;;;;;10.40;8.07;;;9.10;99.90;;;;;;5032176;28;20537;-58
2023/03/22 06:30:27;;;;;;;9.43;8.07;;;9.10;99.90;;;;;;5042954;28;20406;-61
2023/03/22 06:32:53;;;;;;;13.18;8.13;;;9.20;99.90;;;;;;5038976;28;20505;-57
2023/03/22 06:35:19;;;;;;;14.63;8.35;;;9.20;99.90;;;;;;5036236;28;20024;-60
2023/03/22 06:37:44;;;;;;;14.20;9.63;;;9.30;99.90;;;;;;5042088;28;20021;-61
2023/03/22 06:40:11;;;;;;;10.50;7.80;;;9.40;99.90;;;;;;5036464;28;20018;-61
2023/03/22 06:42:36;;;;;;;10.95;6.75;;;9.40;99.90;;;;;;5034118;28;20057;-56
2023/03/22 06:45:03;;;;;;;11.98;7.65;;;9.50;99.90;;;;;;5039792;28;20021;-60
2023/03/22 06:47:28;;;;;;;12.10;7.07;;;9.50;99.90;;;;;;5036918;28;20057;-58
2023/03/22 06:49:54;;;;;;;9.63;7.05;;;9.50;99.90;;;;;;5040859;28;20048;-60
2023/03/22 06:52:20;;;;;;;10.25;7.00;;;9.60;99.90;;;;;;5031326;28;20026;-59
2023/03/22 06:54:45;;;;;;;13.88;7.13;;;9.60;99.90;;;;;;5037370;28;20029;-56
2023/03/22 06:57:11;;;;;;;9.13;6.18;;;9.60;99.90;;;;;;5037050;28;20030;-60
2023/03/22 06:59:36;;;;;;;8.23;6.13;;;9.70;99.90;;;;;;5038329;28;20064;-58
2023/03/22 07:02:03;;;;;;;11.07;6.97;;;9.60;99.90;;;;;;5032404;28;20029;-57
2023/03/22 07:04:29;;;;;;;8.10;6.55;;;9.70;99.90;;;;;;5034303;28;20045;-59
2023/03/22 07:06:55;;;;;;;10.25;6.57;;;9.70;99.90;;;;;;5033213;28;20022;-59
2023/03/22 07:09:22;;;;;;;7.72;6.32;;;9.80;99.90;;;;;;5036447;28;20021;-60
2023/03/22 07:11:48;;;;;;;9.45;5.95;;;9.80;99.90;;;;;;5044402;28;20067;-60
2023/03/22 07:14:14;;;;;;;9.40;6.15;;;9.80;99.90;;;;;;5031766;28;20029;-56
2023/03/22 07:16:39;;;;;;;7.55;5.55;;;9.80;99.90;;;;;;5038389;28;20022;-60
2023/03/22 07:19:05;;;;;;;9.68;6.03;;;9.80;99.90;;;;;;5036010;28;20140;-60
2023/03/22 07:21:31;;;;;;;8.30;6.07;;;9.90;99.90;;;;;;5037313;28;20103;-63
2023/03/22 07:23:57;;;;;;;7.53;6.10;;;9.90;99.90;;;;;;5041805;28;20020;-62
2023/03/22 07:26:23;;;;;;;7.43;6.40;;;9.90;99.90;;;;;;5035113;28;20113;-58
2023/03/22 07:28:48;;;;;;;10.63;6.47;;;10.00;99.90;;;;;;5044595;28;20062;-60
2023/03/22 07:31:14;;;;;;;7.38;5.90;;;10.00;99.90;;;;;;5038546;28;20423;-59
2023/03/22 07:33:40;;;;;;;12.15;7.00;;;10.00;99.90;;;;;;5041415;28;20037;-60
2023/03/22 07:36:07;;;;;;;8.68;6.70;;;10.10;99.90;;;;;;5043117;28;20021;-57
2023/03/22 07:38:34;;;;;;;8.10;6.38;;;10.10;99.90;;;;;;5041928;28;20112;-60
2023/03/22 07:40:59;;;;;;;10.80;6.53;;;10.10;99.90;;;;;;5042543;28;20028;-60
2023/03/22 07:43:25;;;;;;;9.77;6.38;;;10.20;99.90;;;;;;5039369;28;20414;-60
2023/03/22 07:45:51;;;;;;;10.93;6.53;;;10.20;99.90;;;;;;5032422;28;20026;-58
2023/03/22 07:48:18;;;;;;;10.32;6.50;;;10.20;99.90;;;;;;5042913;28;20021;-60
2023/03/22 07:50:43;;;;;;;8.18;6.35;;;10.30;99.90;;;;;;5042337;28;20079;-63
2023/03/22 07:53:10;;;;;;;10.65;6.85;;;10.30;99.90;;;;;;5037266;28;20104;-59
2023/03/22 07:55:36;;;;;;;12.43;7.85;;;10.40;99.90;;;;;;5041109;28;20057;-57
2023/03/22 07:58:03;;;;;;;11.07;7.57;;;10.50;99.90;;;;;;5041294;28;20027;-59
2023/03/22 08:00:29;;;;;;;10.93;7.32;;;10.60;99.90;;;;;;5035787;28;20033;-60
2023/03/22 08:02:55;;;;;;;11.50;8.88;;;10.60;99.90;;;;;;5037624;28;20044;-59
2023/03/22 08:05:21;;;;;;;12.43;8.73;;;10.60;99.90;;;;;;5035328;28;20025;-53
2023/03/22 08:07:47;;;;;;;9.57;8.57;;;10.70;99.90;;;;;;5042337;28;20013;-57
2023/03/22 08:10:13;;;;;;;15.35;8.75;;;10.70;99.90;;;;;;5041246;28;20013;-59
2023/03/22 08:12:39;;;;;;;9.88;8.63;;;10.70;99.90;;;;;;5035034;28;20172;-60
2023/03/22 08:15:05;;;;;;;14.90;9.00;;;10.70;99.90;;;;;;5025058;28;20438;-57
2023/03/22 08:17:31;;;;;;;11.05;8.35;;;10.80;99.90;;;;;;5034338;28;20318;-61
2023/03/22 08:19:56;;;;;;;10.60;8.57;;;10.80;99.90;;;;;;5038465;28;20032;-57
2023/03/22 08:22:28;;;;;;;12.25;9.63;;;10.90;99.90;;;;;;5039780;28;20017;-57
2023/03/22 08:24:55;;;;;;;13.40;9.63;;;10.90;99.90;;;;;;5031956;28;20490;-59
2023/03/22 08:27:21;;;;;;;13.15;9.68;;;11.00;99.90;;;;;;5039992;28;20013;-59
2023/03/22 08:29:47;;;;;;;15.00;9.05;;;11.00;99.90;;;;;;5040722;28;20455;-57
2023/03/22 08:32:15;;;;;;;11.70;9.55;;;11.00;99.90;;;;;;5039480;28;20021;-60
2023/03/22 08:34:41;;;;;;;12.93;10.18;;;11.00;99.90;;;;;;5038239;28;20110;-57
2023/03/22 08:37:08;;;;;;;13.73;9.80;;;11.20;99.90;;;;;;5037444;28;20021;-56
2023/03/22 08:39:35;;;;;;;10.57;8.35;;;11.30;99.90;;;;;;5037977;28;20075;-56
2023/03/22 08:42:01;;;;;;;12.95;8.80;;;11.40;99.90;;;;;;5038367;28;20029;-57
2023/03/22 08:44:26;;;;;;;11.20;8.88;;;11.50;99.90;;;;;;5044256;28;20025;-56
2023/03/22 08:46:52;;;;;;;14.63;9.10;;;11.70;99.90;;;;;;5033424;28;20026;-59
2023/03/22 08:49:18;;;;;;;11.05;8.43;;;11.80;99.90;;;;;;5031974;28;20404;-61
2023/03/22 08:51:44;;;;;;;10.05;7.95;;;12.00;99.90;;;;;;5038030;28;20025;-59
2023/03/22 08:54:10;;;;;;;11.25;8.55;;;12.10;99.90;;;;;;5032833;28;20017;-62
2023/03/22 08:56:36;;;;;;;9.85;7.65;;;12.20;99.90;;;;;;5036327;28;20484;-57
2023/03/22 08:59:06;;;;;;;10.07;7.15;;;12.30;99.90;;;;;;5033330;28;20021;-61
2023/03/22 09:01:33;;;;;;;10.23;7.45;;;12.40;99.90;;;;;;5036439;28;20029;-60
2023/03/22 09:03:59;;;;;;;12.77;8.00;;;12.40;99.90;;;;;;5036305;28;20029;-59
2023/03/22 09:06:25;;;;;;;11.63;7.57;;;12.40;99.90;;;;;;5037160;28;20561;-60
2023/03/22 09:08:51;;;;;;;9.30;7.45;;;12.40;99.90;;;;;;5039203;28;20083;-59
2023/03/22 09:11:18;;;;;;;10.25;7.78;;;12.40;99.90;;;;;;5032097;28;20542;-62
2023/03/22 09:13:44;;;;;;;10.15;7.20;;;12.60;99.90;;;;;;5042258;28;20519;-59
2023/03/22 09:16:10;;;;;;;12.98;7.53;;;12.80;99.90;;;;;;5026691;28;20051;-58
2023/03/22 09:18:39;;;;;;;8.13;6.32;;;13.00;99.90;;;;;;5036951;28;20086;-57
2023/03/22 09:21:06;;;;;;;9.65;7.25;;;13.10;99.90;;;;;;5028901;28;20025;-58
2023/03/22 09:23:33;;;;;;;9.35;6.25;;;13.10;99.90;;;;;;5037480;28;20510;-57
2023/03/22 09:26:07;;;;;;;9.35;6.57;;;13.20;99.90;;;;;;5033060;28;20025;-56
2023/03/22 09:28:33;;;;;;;9.27;6.50;;;13.10;99.90;;;;;;5030898;28;20043;-61
2023/03/22 09:31:05;;;;;;;8.25;6.53;;;13.10;99.90;;;;;;5038275;28;20024;-56
2023/03/22 09:33:31;;;;;;;8.07;5.68;;;13.20;99.90;;;;;;5033103;28;20554;-60
2023/03/22 09:35:57;;;;;;;8.13;5.47;;;13.10;99.90;;;;;;5039000;28;20029;-62
2023/03/22 09:38:23;;;;;;;11.98;6.70;;;13.10;99.90;;;;;;5039854;28;20120;-57
2023/03/22 09:41:01;;;;;;;7.70;6.15;;;13.20;99.90;;;;;;5037379;28;20036;-59
2023/03/22 09:43:38;;;;;;;8.52;5.70;;;13.20;99.90;;;;;;5036735;28;20021;-56
2023/03/22 09:46:07;;;;;;;11.00;6.25;;;13.10;99.90;;;;;;5039867;28;20104;-54
2023/03/22 09:48:36;;;;;;;8.43;5.57;;;13.10;99.90;;;;;;5038360;28;20033;-53
2023/03/22 09:51:06;;;;;;;6.75;5.55;;;13.00;99.90;;;;;;5035543;28;20025;-55
2023/03/22 09:53:32;;;;;;;7.85;5.72;;;12.90;99.90;;;;;;5037502;28;20059;-56
2023/03/22 09:56:10;;;;;;;9.55;5.95;;;12.90;99.90;;;;;;5040875;28;20054;-54
2023/03/22 09:58:45;;;;;;;6.47;5.30;;;12.90;99.90;;;;;;5037936;28;20554;-57
2023/03/22 10:01:24;;;;;;;7.88;4.78;;;13.00;99.90;;;;;;5039851;28;20029;-59
2023/03/22 10:04:01;;;;;;;5.40;4.75;;;13.00;99.90;;;;;;5037772;28;20019;-59
2023/03/22 10:06:29;;;;;;;9.25;5.32;;;13.10;99.90;;;;;;5043250;28;20021;-56
2023/03/22 10:09:18;;;;;;;11.20;4.82;;;13.10;99.90;;;;;;5040650;28;20282;-55
2023/03/22 10:11:48;;;;;;;9.63;5.03;;;13.10;99.90;;;;;;5042791;28;20752;-55
2023/03/22 10:14:32;;;;;;;7.32;4.57;;;13.20;99.90;;;;;;5036579;28;20044;-59
2023/03/22 10:17:04;;;;;;;8.75;5.05;;;13.20;99.90;;;;;;5022618;28;20057;-54
2023/03/22 10:19:42;;;;;;;7.43;4.57;;;13.20;99.90;;;;;;5036216;28;20443;-53
2023/03/22 10:22:13;;;;;;;6.75;4.60;;;13.20;99.90;;;;;;5034537;28;20030;-60
2023/03/22 10:24:44;;;;;;;7.22;4.85;;;13.20;99.90;;;;;;5038828;28;20075;-53
2023/03/22 10:27:21;;;;;;;9.35;4.35;;;13.20;99.90;;;;;;5040765;28;20021;-52
2023/03/22 10:30:20;;;;;;;8.02;3.95;;;13.20;99.90;;;;;;5038553;28;20040;-60
2023/03/22 10:32:54;;;;;;;5.97;3.78;;;13.20;99.90;;;;;;5030037;28;20041;-57
2023/03/22 10:35:19;;;;;;;6.68;3.47;;;13.10;99.90;;;;;;5036732;28;20045;-58
2023/03/22 10:37:48;;;;;;;8.20;3.70;;;13.10;99.90;;;;;;5031303;28;20941;-60
2023/03/22 10:40:34;;;;;;;7.32;3.20;;;13.20;99.90;;;;;;5034365;28;20032;-58
2023/03/22 10:43:11;;;;;;;6.47;3.55;;;13.20;99.90;;;;;;5022238;28;20025;-60
2023/03/22 10:45:37;;;;;;;7.75;3.03;;;13.20;99.90;;;;;;5036173;28;20060;-56
2023/03/22 10:48:13;;;;;;;5.22;3.38;;;13.20;99.90;;;;;;5032548;28;20449;-59
2023/03/22 10:50:40;;;;;;;;;;;13.20;99.90;;;;;;5038950;28;20025;-60
2023/03/22 10:53:10;;;;;;;6.80;3.38;;;13.20;99.90;;;;;;5037086;28;19913;-59
2023/03/22 10:55:41;;;;;;;5.57;3.05;;;13.20;99.90;;;;;;5033219;28;20129;-59
2023/03/22 10:58:15;;;;;;;4.47;3.40;;;13.30;99.90;;;;;;5033298;28;20412;-61
2023/03/22 11:00:55;;;;;;;5.10;2.83;;;13.30;99.90;;;;;;5044437;28;20018;-60
2023/03/22 11:03:37;;;;;;;7.55;3.15;;;13.30;99.90;;;;;;5030711;28;20116;-58
2023/03/22 11:06:06;;;;;;;5.80;2.83;;;13.40;99.90;;;;;;5031015;28;20013;-58
2023/03/22 11:08:39;;;;;;;4.75;2.65;;;13.40;99.90;;;;;;5041709;28;20032;-61
2023/03/22 11:11:06;;;;;;;5.03;2.58;;;13.40;99.90;;;;;;5039077;28;20135;-59
2023/03/22 11:13:34;;;;;;;4.30;2.10;;;13.50;99.90;;;;;;5044772;28;20087;-63
2023/03/22 11:16:01;;;;;;;4.22;2.55;;;13.60;99.90;;;;;;5038197;28;20447;-62
2023/03/22 11:18:32;;;;;;;8.38;2.78;;;13.60;99.90;;;;;;5036172;28;20072;-63
2023/03/22 11:21:03;;;;;;;5.88;3.15;;;13.70;99.90;;;;;;5030565;28;20030;-61
2023/03/22 11:23:32;;;;;;;7.13;2.80;;;13.70;99.90;;;;;;5040215;28;20030;-62
2023/03/22 11:26:20;;;;;;;9.75;2.75;;;13.80;99.90;;;;;;5042740;28;20018;-62
2023/03/22 11:28:49;;;;;;;5.18;2.67;;;13.80;99.90;;;;;;5019976;28;20048;-62
2023/03/22 11:31:19;;;;;;;4.63;3.03;;;13.70;99.90;;;;;;5040159;28;20033;-60
2023/03/22 11:33:59;;;;;;;7.68;2.97;;;13.60;99.90;;;;;;5039164;28;20059;-57
2023/03/22 11:36:26;;;;;;;4.28;2.53;;;13.50;99.90;;;;;;5036585;28;20487;-55
2023/03/22 11:39:06;;;;;;;4.95;2.42;;;13.50;99.90;;;;;;5030316;28;20435;-58
2023/03/22 11:41:37;;;;;;;4.55;3.38;;;13.40;99.90;;;;;;5042872;28;20093;-57
2023/03/22 11:44:15;;;;;;;5.72;2.88;;;13.40;99.90;;;;;;5041697;28;20491;-60
2023/03/22 11:47:01;;;;;;;6.70;3.25;;;13.40;99.90;;;;;;5039501;28;20036;-61
2023/03/22 11:49:38;;;;;;;4.15;2.83;;;13.40;99.90;;;;;;5033254;28;20044;-61
2023/03/22 11:52:10;;;;;;;5.70;2.58;;;13.40;99.90;;;;;;5037259;28;20048;-59
2023/03/22 11:54:38;;;;;;;4.28;2.85;;;13.30;99.90;;;;;;5038844;28;20033;-58
2023/03/22 11:57:08;;;;;;;4.35;2.72;;;13.30;99.90;;;;;;5037463;28;20542;-58
2023/03/22 11:59:43;;;;;;;5.45;2.55;;;13.40;99.90;;;;;;5040099;28;20067;-61
2023/03/22 12:02:12;;;;;;;4.93;2.70;;;13.40;99.90;;;;;;5033925;28;20288;-61
2023/03/22 12:04:40;;;;;;;6.05;2.72;;;13.40;99.90;;;;;;5042309;28;20021;-59
2023/03/22 12:07:14;;;;;;;5.57;2.20;;;13.50;99.90;;;;;;5028253;28;20017;-58
2023/03/22 12:09:45;;;;;;;5.53;2.15;;;13.50;99.90;;;;;;5039720;28;20036;-57
2023/03/22 12:12:18;;;;;;;6.13;1.88;;;13.50;99.90;;;;;;5038549;28;20115;-60
2023/03/22 12:14:53;;;;;;;4.00;1.77;;;13.50;99.90;;;;;;5039396;28;20025;-63
2023/03/22 12:17:40;;;;;;;2.95;1.90;;;13.50;99.90;;;;;;5035030;28;20431;-56
2023/03/22 12:20:18;;;;;;;4.28;2.03;;;13.40;99.90;;;;;;5020199;28;20055;-61
2023/03/22 12:22:50;;;;;;;5.88;2.42;;;13.40;99.90;;;;;;5027016;28;20095;-61
2023/03/22 12:25:31;;;;;;;4.05;1.90;;;13.50;99.90;;;;;;5037096;28;20107;-60
2023/03/22 12:28:02;;;;;;;5.45;2.30;;;13.50;99.90;;;;;;5035111;28;20080;-60
2023/03/22 12:30:32;;;;;;;3.90;2.10;;;13.40;99.90;;;;;;5030800;28;20048;-60
2023/03/22 12:33:05;;;;;;;5.57;2.20;;;13.40;99.90;;;;;;5029836;28;20036;-59
2023/03/22 12:35:35;;;;;;;4.13;2.17;;;13.30;99.90;;;;;;5042264;28;20033;-61
2023/03/22 12:38:26;;;;;;;5.43;1.88;;;13.30;99.90;;;;;;5027255;28;20104;-61
2023/03/22 12:40:54;;;;;;;6.43;2.85;;;13.30;99.90;;;;;;5036707;28;20021;-63
2023/03/22 12:44:01;;;;;;;4.80;2.67;;;13.30;99.90;;;;;;5026302;28;20112;-60
2023/03/22 12:46:34;;;;;;;5.38;3.40;;;13.20;99.90;;;;;;5028870;28;20030;-62
2023/03/22 12:49:30;;;;;;;5.50;3.05;;;13.20;99.90;;;;;;5031693;28;20021;-58
2023/03/22 12:52:10;;;;;;;6.10;2.63;;;13.20;99.90;;;;;;5028438;28;20025;-61
2023/03/22 12:54:37;;;;;;;3.35;3.03;;;13.10;99.90;;;;;;5028115;28;20025;-60